sensor_id;sensor_type;location;lat;lon;timestamp;P1;durP1;ratioP1;P2;durP2;ratioP2
20721;SDS011;10522;52.198;9.890;2023-08-08T00:01:12;6.90;;;2.30;;
20721;SDS011;10522;52.198;9.890;2023-08-08T00:03:38;6.40;;;2.73;;
20721;SDS011;10522;52.198;9.890;2023-08-08T00:06:03;9.10;;;2.43;;
20721;SDS011;10522;52.198;9.890;2023-08-08T00:08:29;7.10;;;2.20;;
20721;SDS011;10522;52.198;9.890;2023-08-08T00:10:55;4.80;;;2.60;;
20721;SDS011;10522;52.198;9.890;2023-08-08T00:13:21;6.10;;;2.90;;
20721;SDS011;10522;52.198;9.890;2023-08-08T00:15:47;3.47;;;2.57;;
20721;SDS011;10522;52.198;9.890;2023-08-08T00:18:13;6.23;;;2.17;;
20721;SDS011;10522;52.198;9.890;2023-08-08T00:20:39;6.27;;;2.80;;
20721;SDS011;10522;52.198;9.890;2023-08-08T00:23:04;5.13;;;2.63;;
20721;SDS011;10522;52.198;9.890;2023-08-08T00:25:30;6.63;;;3.10;;
20721;SDS011;10522;52.198;9.890;2023-08-08T00:27:56;6.03;;;2.80;;
20721;SDS011;10522;52.198;9.890;2023-08-08T00:30:21;4.50;;;2.37;;
20721;SDS011;10522;52.198;9.890;2023-08-08T00:32:47;6.67;;;3.43;;
20721;SDS011;10522;52.198;9.890;2023-08-08T00:35:12;7.53;;;3.20;;
20721;SDS011;10522;52.198;9.890;2023-08-08T00:37:38;5.63;;;2.63;;
20721;SDS011;10522;52.198;9.890;2023-08-08T00:40:04;4.53;;;2.50;;
20721;SDS011;10522;52.198;9.890;2023-08-08T00:42:31;9.63;;;3.63;;
20721;SDS011;10522;52.198;9.890;2023-08-08T00:44:56;5.87;;;3.10;;
20721;SDS011;10522;52.198;9.890;2023-08-08T00:47:27;6.63;;;2.93;;
20721;SDS011;10522;52.198;9.890;2023-08-08T00:49:53;5.43;;;3.20;;
20721;SDS011;10522;52.198;9.890;2023-08-08T00:52:18;5.60;;;2.87;;
20721;SDS011;10522;52.198;9.890;2023-08-08T00:54:44;4.53;;;3.10;;
20721;SDS011;10522;52.198;9.890;2023-08-08T00:57:10;8.77;;;3.07;;
20721;SDS011;10522;52.198;9.890;2023-08-08T00:59:37;5.00;;;3.13;;
20721;SDS011;10522;52.198;9.890;2023-08-08T01:02:02;6.70;;;2.93;;
20721;SDS011;10522;52.198;9.890;2023-08-08T01:04:28;6.67;;;3.20;;
20721;SDS011;10522;52.198;9.890;2023-08-08T01:09:33;5.40;;;2.87;;
20721;SDS011;10522;52.198;9.890;2023-08-08T01:12:04;5.93;;;3.00;;
20721;SDS011;10522;52.198;9.890;2023-08-08T01:14:33;4.07;;;2.93;;
20721;SDS011;10522;52.198;9.890;2023-08-08T01:17:00;8.37;;;3.00;;
20721;SDS011;10522;52.198;9.890;2023-08-08T01:19:28;7.07;;;2.73;;
20721;SDS011;10522;52.198;9.890;2023-08-08T01:21:57;3.73;;;2.70;;
20721;SDS011;10522;52.198;9.890;2023-08-08T01:24:28;5.10;;;2.93;;
20721;SDS011;10522;52.198;9.890;2023-08-08T01:27:01;5.17;;;2.93;;
20721;SDS011;10522;52.198;9.890;2023-08-08T01:29:27;11.73;;;3.17;;
20721;SDS011;10522;52.198;9.890;2023-08-08T01:31:52;8.20;;;2.73;;
20721;SDS011;10522;52.198;9.890;2023-08-08T01:34:18;5.27;;;2.80;;
20721;SDS011;10522;52.198;9.890;2023-08-08T01:39:14;4.47;;;2.50;;
20721;SDS011;10522;52.198;9.890;2023-08-08T01:41:44;4.50;;;2.50;;
20721;SDS011;10522;52.198;9.890;2023-08-08T01:44:12;7.07;;;2.63;;
20721;SDS011;10522;52.198;9.890;2023-08-08T01:46:39;3.57;;;2.63;;
20721;SDS011;10522;52.198;9.890;2023-08-08T01:49:05;5.30;;;3.23;;
20721;SDS011;10522;52.198;9.890;2023-08-08T01:51:30;4.00;;;2.90;;
20721;SDS011;10522;52.198;9.890;2023-08-08T01:53:56;5.80;;;3.70;;
20721;SDS011;10522;52.198;9.890;2023-08-08T01:56:22;6.30;;;3.87;;
20721;SDS011;10522;52.198;9.890;2023-08-08T01:58:47;6.83;;;3.53;;
20721;SDS011;10522;52.198;9.890;2023-08-08T02:01:13;5.27;;;3.47;;
20721;SDS011;10522;52.198;9.890;2023-08-08T02:03:39;8.37;;;3.53;;
20721;SDS011;10522;52.198;9.890;2023-08-08T02:06:04;9.00;;;3.57;;
20721;SDS011;10522;52.198;9.890;2023-08-08T02:08:30;6.13;;;3.97;;
20721;SDS011;10522;52.198;9.890;2023-08-08T02:10:56;4.97;;;3.30;;
20721;SDS011;10522;52.198;9.890;2023-08-08T02:13:21;6.53;;;3.33;;
20721;SDS011;10522;52.198;9.890;2023-08-08T02:15:47;4.27;;;2.97;;
20721;SDS011;10522;52.198;9.890;2023-08-08T02:18:13;6.40;;;3.40;;
20721;SDS011;10522;52.198;9.890;2023-08-08T02:20:38;6.03;;;3.73;;
20721;SDS011;10522;52.198;9.890;2023-08-08T02:23:04;6.57;;;3.30;;
20721;SDS011;10522;52.198;9.890;2023-08-08T02:25:30;4.97;;;3.87;;
20721;SDS011;10522;52.198;9.890;2023-08-08T02:27:56;9.90;;;4.37;;
20721;SDS011;10522;52.198;9.890;2023-08-08T02:30:22;4.73;;;3.57;;
20721;SDS011;10522;52.198;9.890;2023-08-08T02:32:47;9.23;;;4.00;;
20721;SDS011;10522;52.198;9.890;2023-08-08T02:35:13;8.03;;;4.47;;
20721;SDS011;10522;52.198;9.890;2023-08-08T02:37:39;7.73;;;3.90;;
20721;SDS011;10522;52.198;9.890;2023-08-08T02:40:06;7.67;;;3.53;;
20721;SDS011;10522;52.198;9.890;2023-08-08T02:42:33;9.37;;;3.97;;
20721;SDS011;10522;52.198;9.890;2023-08-08T02:44:58;10.53;;;3.83;;
20721;SDS011;10522;52.198;9.890;2023-08-08T02:47:24;10.63;;;4.07;;
20721;SDS011;10522;52.198;9.890;2023-08-08T02:49:50;10.43;;;3.90;;
20721;SDS011;10522;52.198;9.890;2023-08-08T02:52:15;4.03;;;3.30;;
20721;SDS011;10522;52.198;9.890;2023-08-08T02:54:41;6.10;;;3.23;;
20721;SDS011;10522;52.198;9.890;2023-08-08T02:57:07;6.80;;;4.53;;
20721;SDS011;10522;52.198;9.890;2023-08-08T02:59:35;6.53;;;3.40;;
20721;SDS011;10522;52.198;9.890;2023-08-08T03:02:01;5.53;;;3.60;;
20721;SDS011;10522;52.198;9.890;2023-08-08T03:04:28;6.10;;;3.73;;
20721;SDS011;10522;52.198;9.890;2023-08-08T03:06:54;6.90;;;4.20;;
20721;SDS011;10522;52.198;9.890;2023-08-08T03:09:19;6.70;;;3.47;;
20721;SDS011;10522;52.198;9.890;2023-08-08T03:11:45;5.93;;;3.23;;
20721;SDS011;10522;52.198;9.890;2023-08-08T03:14:11;7.30;;;3.23;;
20721;SDS011;10522;52.198;9.890;2023-08-08T03:16:36;7.03;;;3.60;;
20721;SDS011;10522;52.198;9.890;2023-08-08T03:19:02;7.87;;;3.50;;
20721;SDS011;10522;52.198;9.890;2023-08-08T03:21:28;6.47;;;4.20;;
20721;SDS011;10522;52.198;9.890;2023-08-08T03:23:54;11.03;;;5.03;;
20721;SDS011;10522;52.198;9.890;2023-08-08T03:26:20;5.10;;;3.67;;
20721;SDS011;10522;52.198;9.890;2023-08-08T03:28:45;8.60;;;3.83;;
20721;SDS011;10522;52.198;9.890;2023-08-08T03:31:15;4.73;;;3.07;;
20721;SDS011;10522;52.198;9.890;2023-08-08T03:33:42;5.73;;;3.30;;
20721;SDS011;10522;52.198;9.890;2023-08-08T03:36:08;7.70;;;3.90;;
20721;SDS011;10522;52.198;9.890;2023-08-08T03:38:33;6.43;;;3.13;;
20721;SDS011;10522;52.198;9.890;2023-08-08T03:41:00;7.10;;;3.67;;
20721;SDS011;10522;52.198;9.890;2023-08-08T03:43:26;6.97;;;3.20;;
20721;SDS011;10522;52.198;9.890;2023-08-08T03:45:51;6.63;;;3.60;;
20721;SDS011;10522;52.198;9.890;2023-08-08T03:48:20;7.17;;;3.83;;
20721;SDS011;10522;52.198;9.890;2023-08-08T03:50:45;6.60;;;3.10;;
20721;SDS011;10522;52.198;9.890;2023-08-08T03:53:12;8.50;;;3.60;;
20721;SDS011;10522;52.198;9.890;2023-08-08T03:55:38;5.93;;;3.50;;
20721;SDS011;10522;52.198;9.890;2023-08-08T03:58:03;4.23;;;2.87;;
20721;SDS011;10522;52.198;9.890;2023-08-08T04:00:30;8.53;;;2.63;;
20721;SDS011;10522;52.198;9.890;2023-08-08T04:02:56;4.33;;;3.10;;
20721;SDS011;10522;52.198;9.890;2023-08-08T04:05:22;5.40;;;3.23;;
20721;SDS011;10522;52.198;9.890;2023-08-08T04:07:47;6.67;;;3.17;;
20721;SDS011;10522;52.198;9.890;2023-08-08T04:10:13;6.37;;;3.30;;
20721;SDS011;10522;52.198;9.890;2023-08-08T04:12:39;5.77;;;3.33;;
20721;SDS011;10522;52.198;9.890;2023-08-08T04:15:04;6.70;;;2.90;;
20721;SDS011;10522;52.198;9.890;2023-08-08T04:17:30;6.80;;;2.73;;
20721;SDS011;10522;52.198;9.890;2023-08-08T04:19:56;3.83;;;3.03;;
20721;SDS011;10522;52.198;9.890;2023-08-08T04:22:22;4.87;;;3.10;;
20721;SDS011;10522;52.198;9.890;2023-08-08T04:24:47;5.23;;;3.10;;
20721;SDS011;10522;52.198;9.890;2023-08-08T04:27:13;5.13;;;3.20;;
20721;SDS011;10522;52.198;9.890;2023-08-08T04:29:39;3.60;;;2.53;;
20721;SDS011;10522;52.198;9.890;2023-08-08T04:32:04;6.13;;;3.23;;
20721;SDS011;10522;52.198;9.890;2023-08-08T04:34:30;6.23;;;2.87;;
20721;SDS011;10522;52.198;9.890;2023-08-08T04:36:56;4.77;;;2.47;;
20721;SDS011;10522;52.198;9.890;2023-08-08T04:39:22;5.03;;;2.70;;
20721;SDS011;10522;52.198;9.890;2023-08-08T04:41:47;5.00;;;2.80;;
20721;SDS011;10522;52.198;9.890;2023-08-08T04:44:16;3.57;;;2.77;;
20721;SDS011;10522;52.198;9.890;2023-08-08T04:46:41;7.63;;;2.80;;
20721;SDS011;10522;52.198;9.890;2023-08-08T04:49:07;4.73;;;2.53;;
20721;SDS011;10522;52.198;9.890;2023-08-08T04:51:33;6.03;;;2.90;;
20721;SDS011;10522;52.198;9.890;2023-08-08T04:53:58;7.63;;;2.60;;
20721;SDS011;10522;52.198;9.890;2023-08-08T04:56:24;5.37;;;3.10;;
20721;SDS011;10522;52.198;9.890;2023-08-08T04:58:50;6.03;;;2.83;;
20721;SDS011;10522;52.198;9.890;2023-08-08T05:01:15;3.60;;;2.83;;
20721;SDS011;10522;52.198;9.890;2023-08-08T05:03:46;7.90;;;2.63;;
20721;SDS011;10522;52.198;9.890;2023-08-08T05:06:11;8.30;;;2.80;;
20721;SDS011;10522;52.198;9.890;2023-08-08T05:08:37;4.57;;;2.90;;
20721;SDS011;10522;52.198;9.890;2023-08-08T05:11:03;7.67;;;3.07;;
20721;SDS011;10522;52.198;9.890;2023-08-08T05:13:28;4.70;;;2.83;;
20721;SDS011;10522;52.198;9.890;2023-08-08T05:15:54;6.77;;;3.63;;
20721;SDS011;10522;52.198;9.890;2023-08-08T05:18:20;6.63;;;3.27;;
20721;SDS011;10522;52.198;9.890;2023-08-08T05:20:45;5.10;;;3.47;;
20721;SDS011;10522;52.198;9.890;2023-08-08T05:23:11;6.97;;;4.33;;
20721;SDS011;10522;52.198;9.890;2023-08-08T05:25:37;6.37;;;3.40;;
20721;SDS011;10522;52.198;9.890;2023-08-08T05:28:02;7.23;;;4.07;;
20721;SDS011;10522;52.198;9.890;2023-08-08T05:30:28;6.47;;;3.43;;
20721;SDS011;10522;52.198;9.890;2023-08-08T05:32:54;7.37;;;4.20;;
20721;SDS011;10522;52.198;9.890;2023-08-08T05:35:20;5.57;;;3.87;;
20721;SDS011;10522;52.198;9.890;2023-08-08T05:37:45;6.30;;;4.03;;
20721;SDS011;10522;52.198;9.890;2023-08-08T05:40:13;5.63;;;3.97;;
20721;SDS011;10522;52.198;9.890;2023-08-08T05:42:39;6.17;;;4.77;;
20721;SDS011;10522;52.198;9.890;2023-08-08T05:45:05;6.93;;;4.10;;
20721;SDS011;10522;52.198;9.890;2023-08-08T05:47:32;4.73;;;4.00;;
20721;SDS011;10522;52.198;9.890;2023-08-08T05:49:58;5.40;;;4.30;;
20721;SDS011;10522;52.198;9.890;2023-08-08T05:52:23;10.63;;;4.97;;
20721;SDS011;10522;52.198;9.890;2023-08-08T05:54:49;7.57;;;4.93;;
20721;SDS011;10522;52.198;9.890;2023-08-08T05:57:14;13.93;;;5.67;;
20721;SDS011;10522;52.198;9.890;2023-08-08T05:59:40;6.60;;;4.47;;
20721;SDS011;10522;52.198;9.890;2023-08-08T06:02:08;9.10;;;4.80;;
20721;SDS011;10522;52.198;9.890;2023-08-08T06:04:34;9.17;;;4.80;;
20721;SDS011;10522;52.198;9.890;2023-08-08T06:06:59;6.47;;;4.47;;
20721;SDS011;10522;52.198;9.890;2023-08-08T06:09:25;6.93;;;5.10;;
20721;SDS011;10522;52.198;9.890;2023-08-08T06:11:51;8.10;;;4.93;;
20721;SDS011;10522;52.198;9.890;2023-08-08T06:14:17;7.47;;;4.57;;
20721;SDS011;10522;52.198;9.890;2023-08-08T06:16:42;6.43;;;4.63;;
20721;SDS011;10522;52.198;9.890;2023-08-08T06:19:08;7.23;;;4.63;;
20721;SDS011;10522;52.198;9.890;2023-08-08T06:21:35;6.23;;;5.03;;
20721;SDS011;10522;52.198;9.890;2023-08-08T06:24:01;7.10;;;4.30;;
20721;SDS011;10522;52.198;9.890;2023-08-08T06:26:26;7.67;;;4.97;;
20721;SDS011;10522;52.198;9.890;2023-08-08T06:28:52;7.43;;;4.97;;
20721;SDS011;10522;52.198;9.890;2023-08-08T06:31:18;8.57;;;4.90;;
20721;SDS011;10522;52.198;9.890;2023-08-08T06:33:44;7.97;;;4.60;;
20721;SDS011;10522;52.198;9.890;2023-08-08T06:36:10;9.90;;;4.90;;
20721;SDS011;10522;52.198;9.890;2023-08-08T06:38:36;13.63;;;5.10;;
20721;SDS011;10522;52.198;9.890;2023-08-08T06:41:02;9.10;;;4.70;;
20721;SDS011;10522;52.198;9.890;2023-08-08T06:43:28;9.50;;;5.40;;
20721;SDS011;10522;52.198;9.890;2023-08-08T06:45:55;6.03;;;5.43;;
20721;SDS011;10522;52.198;9.890;2023-08-08T06:48:21;9.73;;;5.57;;
20721;SDS011;10522;52.198;9.890;2023-08-08T06:50:47;7.27;;;5.33;;
20721;SDS011;10522;52.198;9.890;2023-08-08T06:53:13;14.63;;;5.07;;
20721;SDS011;10522;52.198;9.890;2023-08-08T06:55:39;9.77;;;5.33;;
20721;SDS011;10522;52.198;9.890;2023-08-08T06:58:05;10.53;;;5.63;;
20721;SDS011;10522;52.198;9.890;2023-08-08T07:00:30;9.20;;;6.10;;
20721;SDS011;10522;52.198;9.890;2023-08-08T07:02:56;11.90;;;6.97;;
20721;SDS011;10522;52.198;9.890;2023-08-08T07:05:26;9.53;;;5.93;;
20721;SDS011;10522;52.198;9.890;2023-08-08T07:07:57;6.33;;;5.63;;
20721;SDS011;10522;52.198;9.890;2023-08-08T07:10:23;7.33;;;6.30;;
20721;SDS011;10522;52.198;9.890;2023-08-08T07:12:48;7.57;;;5.77;;
20721;SDS011;10522;52.198;9.890;2023-08-08T07:15:14;10.03;;;6.27;;
20721;SDS011;10522;52.198;9.890;2023-08-08T07:17:42;8.83;;;6.90;;
20721;SDS011;10522;52.198;9.890;2023-08-08T07:20:11;9.00;;;6.20;;
20721;SDS011;10522;52.198;9.890;2023-08-08T07:22:48;9.20;;;6.93;;
20721;SDS011;10522;52.198;9.890;2023-08-08T07:25:13;8.23;;;6.10;;
20721;SDS011;10522;52.198;9.890;2023-08-08T07:27:42;11.80;;;6.20;;
20721;SDS011;10522;52.198;9.890;2023-08-08T07:30:08;8.93;;;6.17;;
20721;SDS011;10522;52.198;9.890;2023-08-08T07:32:55;8.67;;;5.67;;
20721;SDS011;10522;52.198;9.890;2023-08-08T07:35:21;9.47;;;5.80;;
20721;SDS011;10522;52.198;9.890;2023-08-08T07:37:47;10.00;;;5.83;;
20721;SDS011;10522;52.198;9.890;2023-08-08T07:40:15;6.10;;;5.50;;
20721;SDS011;10522;52.198;9.890;2023-08-08T07:42:47;8.30;;;5.50;;
20721;SDS011;10522;52.198;9.890;2023-08-08T07:45:14;14.37;;;6.13;;
20721;SDS011;10522;52.198;9.890;2023-08-08T07:47:41;6.30;;;5.63;;
20721;SDS011;10522;52.198;9.890;2023-08-08T07:50:07;12.23;;;6.30;;
20721;SDS011;10522;52.198;9.890;2023-08-08T07:52:34;7.70;;;5.43;;
20721;SDS011;10522;52.198;9.890;2023-08-08T07:55:00;9.70;;;4.87;;
20721;SDS011;10522;52.198;9.890;2023-08-08T07:57:26;4.93;;;4.03;;
20721;SDS011;10522;52.198;9.890;2023-08-08T07:59:52;10.67;;;5.23;;
20721;SDS011;10522;52.198;9.890;2023-08-08T08:02:18;8.97;;;4.47;;
20721;SDS011;10522;52.198;9.890;2023-08-08T08:04:43;8.83;;;4.57;;
20721;SDS011;10522;52.198;9.890;2023-08-08T08:07:09;10.03;;;4.23;;
20721;SDS011;10522;52.198;9.890;2023-08-08T08:09:35;10.47;;;5.20;;
20721;SDS011;10522;52.198;9.890;2023-08-08T08:12:03;5.37;;;3.80;;
20721;SDS011;10522;52.198;9.890;2023-08-08T08:14:29;8.93;;;3.93;;
20721;SDS011;10522;52.198;9.890;2023-08-08T08:16:54;4.80;;;3.17;;
20721;SDS011;10522;52.198;9.890;2023-08-08T08:19:20;6.43;;;3.43;;
20721;SDS011;10522;52.198;9.890;2023-08-08T08:21:46;6.40;;;3.33;;
20721;SDS011;10522;52.198;9.890;2023-08-08T08:24:14;6.27;;;3.20;;
20721;SDS011;10522;52.198;9.890;2023-08-08T08:26:43;6.43;;;3.10;;
20721;SDS011;10522;52.198;9.890;2023-08-08T08:29:21;5.73;;;3.13;;
20721;SDS011;10522;52.198;9.890;2023-08-08T08:31:59;6.47;;;3.10;;
20721;SDS011;10522;52.198;9.890;2023-08-08T08:34:27;5.90;;;2.83;;
20721;SDS011;10522;52.198;9.890;2023-08-08T08:36:53;7.87;;;3.17;;
20721;SDS011;10522;52.198;9.890;2023-08-08T08:39:19;10.73;;;3.73;;
20721;SDS011;10522;52.198;9.890;2023-08-08T08:41:45;11.30;;;3.47;;
20721;SDS011;10522;52.198;9.890;2023-08-08T08:44:14;6.70;;;3.97;;
20721;SDS011;10522;52.198;9.890;2023-08-08T08:46:45;11.00;;;4.67;;
20721;SDS011;10522;52.198;9.890;2023-08-08T08:49:13;12.67;;;5.13;;
20721;SDS011;10522;52.198;9.890;2023-08-08T08:51:52;10.93;;;5.03;;
20721;SDS011;10522;52.198;9.890;2023-08-08T08:54:17;7.97;;;5.07;;
20721;SDS011;10522;52.198;9.890;2023-08-08T08:56:50;9.80;;;4.70;;
20721;SDS011;10522;52.198;9.890;2023-08-08T08:59:16;6.97;;;4.40;;
20721;SDS011;10522;52.198;9.890;2023-08-08T09:01:42;7.37;;;4.87;;
20721;SDS011;10522;52.198;9.890;2023-08-08T09:04:08;7.10;;;4.40;;
20721;SDS011;10522;52.198;9.890;2023-08-08T09:06:34;7.77;;;4.80;;
20721;SDS011;10522;52.198;9.890;2023-08-08T09:09:00;7.23;;;4.57;;
20721;SDS011;10522;52.198;9.890;2023-08-08T09:11:29;9.27;;;4.60;;
20721;SDS011;10522;52.198;9.890;2023-08-08T09:13:56;7.40;;;4.30;;
20721;SDS011;10522;52.198;9.890;2023-08-08T09:16:22;9.20;;;4.77;;
20721;SDS011;10522;52.198;9.890;2023-08-08T09:18:48;10.73;;;5.77;;
20721;SDS011;10522;52.198;9.890;2023-08-08T09:21:14;11.30;;;5.70;;
20721;SDS011;10522;52.198;9.890;2023-08-08T09:23:40;10.23;;;5.43;;
20721;SDS011;10522;52.198;9.890;2023-08-08T09:26:06;11.20;;;5.03;;
20721;SDS011;10522;52.198;9.890;2023-08-08T09:28:33;13.13;;;5.57;;
20721;SDS011;10522;52.198;9.890;2023-08-08T09:30:59;7.50;;;5.20;;
20721;SDS011;10522;52.198;9.890;2023-08-08T09:33:28;9.53;;;5.93;;
20721;SDS011;10522;52.198;9.890;2023-08-08T09:35:54;8.27;;;5.63;;
20721;SDS011;10522;52.198;9.890;2023-08-08T09:38:20;8.40;;;5.97;;
20721;SDS011;10522;52.198;9.890;2023-08-08T09:40:46;9.13;;;5.43;;
20721;SDS011;10522;52.198;9.890;2023-08-08T09:43:11;9.47;;;6.10;;
20721;SDS011;10522;52.198;9.890;2023-08-08T09:45:38;8.70;;;6.87;;
20721;SDS011;10522;52.198;9.890;2023-08-08T09:48:06;9.40;;;5.97;;
20721;SDS011;10522;52.198;9.890;2023-08-08T09:50:35;10.80;;;6.17;;
20721;SDS011;10522;52.198;9.890;2023-08-08T09:53:02;9.67;;;7.00;;
20721;SDS011;10522;52.198;9.890;2023-08-08T09:55:28;10.47;;;7.20;;
20721;SDS011;10522;52.198;9.890;2023-08-08T09:57:55;9.20;;;6.73;;
20721;SDS011;10522;52.198;9.890;2023-08-08T10:00:22;12.67;;;6.50;;
20721;SDS011;10522;52.198;9.890;2023-08-08T10:02:50;12.77;;;6.77;;
20721;SDS011;10522;52.198;9.890;2023-08-08T10:05:16;13.63;;;7.47;;
20721;SDS011;10522;52.198;9.890;2023-08-08T10:07:42;11.13;;;7.07;;
20721;SDS011;10522;52.198;9.890;2023-08-08T10:10:09;11.23;;;7.47;;
20721;SDS011;10522;52.198;9.890;2023-08-08T10:12:38;8.20;;;6.37;;
20721;SDS011;10522;52.198;9.890;2023-08-08T10:15:08;10.10;;;6.43;;
20721;SDS011;10522;52.198;9.890;2023-08-08T10:17:37;8.50;;;6.17;;
20721;SDS011;10522;52.198;9.890;2023-08-08T10:20:03;13.37;;;6.70;;
20721;SDS011;10522;52.198;9.890;2023-08-08T10:22:37;11.87;;;6.63;;
20721;SDS011;10522;52.198;9.890;2023-08-08T10:25:19;11.87;;;7.90;;
20721;SDS011;10522;52.198;9.890;2023-08-08T10:27:48;8.00;;;5.27;;
20721;SDS011;10522;52.198;9.890;2023-08-08T10:30:13;10.90;;;6.00;;
20721;SDS011;10522;52.198;9.890;2023-08-08T10:32:41;10.60;;;5.83;;
20721;SDS011;10522;52.198;9.890;2023-08-08T10:35:09;9.33;;;6.33;;
20721;SDS011;10522;52.198;9.890;2023-08-08T10:37:36;8.87;;;6.07;;
20721;SDS011;10522;52.198;9.890;2023-08-08T10:40:03;11.67;;;6.00;;
20721;SDS011;10522;52.198;9.890;2023-08-08T10:42:40;10.67;;;5.87;;
20721;SDS011;10522;52.198;9.890;2023-08-08T10:45:08;9.10;;;6.47;;
20721;SDS011;10522;52.198;9.890;2023-08-08T10:47:37;8.00;;;5.57;;
20721;SDS011;10522;52.198;9.890;2023-08-08T10:50:10;10.40;;;6.07;;
20721;SDS011;10522;52.198;9.890;2023-08-08T10:52:38;7.13;;;5.10;;
20721;SDS011;10522;52.198;9.890;2023-08-08T10:55:31;7.47;;;4.20;;
20721;SDS011;10522;52.198;9.890;2023-08-08T11:00:33;7.37;;;4.53;;
20721;SDS011;10522;52.198;9.890;2023-08-08T11:03:00;6.00;;;4.03;;
20721;SDS011;10522;52.198;9.890;2023-08-08T11:05:30;7.57;;;3.67;;
20721;SDS011;10522;52.198;9.890;2023-08-08T11:07:57;7.70;;;3.97;;
20721;SDS011;10522;52.198;9.890;2023-08-08T11:10:23;9.60;;;4.30;;
20721;SDS011;10522;52.198;9.890;2023-08-08T11:12:53;7.40;;;4.63;;
20721;SDS011;10522;52.198;9.890;2023-08-08T11:15:20;7.00;;;3.47;;
20721;SDS011;10522;52.198;9.890;2023-08-08T11:17:45;10.37;;;4.13;;
20721;SDS011;10522;52.198;9.890;2023-08-08T11:20:11;4.53;;;3.07;;
20721;SDS011;10522;52.198;9.890;2023-08-08T11:22:37;4.93;;;3.37;;
20721;SDS011;10522;52.198;9.890;2023-08-08T11:25:03;4.63;;;3.00;;
20721;SDS011;10522;52.198;9.890;2023-08-08T11:27:29;5.37;;;2.50;;
20721;SDS011;10522;52.198;9.890;2023-08-08T11:29:56;7.60;;;2.70;;
20721;SDS011;10522;52.198;9.890;2023-08-08T11:32:23;5.87;;;2.80;;
20721;SDS011;10522;52.198;9.890;2023-08-08T11:34:53;5.17;;;2.50;;
20721;SDS011;10522;52.198;9.890;2023-08-08T11:37:19;4.63;;;1.97;;
20721;SDS011;10522;52.198;9.890;2023-08-08T11:39:45;5.43;;;1.93;;
20721;SDS011;10522;52.198;9.890;2023-08-08T11:42:11;6.10;;;2.70;;
20721;SDS011;10522;52.198;9.890;2023-08-08T11:44:37;2.90;;;2.07;;
20721;SDS011;10522;52.198;9.890;2023-08-08T11:47:03;3.70;;;2.50;;
20721;SDS011;10522;52.198;9.890;2023-08-08T11:49:28;7.87;;;3.30;;
20721;SDS011;10522;52.198;9.890;2023-08-08T11:51:54;7.80;;;2.60;;
20721;SDS011;10522;52.198;9.890;2023-08-08T11:54:26;5.80;;;2.63;;
20721;SDS011;10522;52.198;9.890;2023-08-08T11:56:53;5.83;;;3.17;;
20721;SDS011;10522;52.198;9.890;2023-08-08T11:59:19;4.67;;;2.70;;
20721;SDS011;10522;52.198;9.890;2023-08-08T12:01:45;6.33;;;2.90;;
20721;SDS011;10522;52.198;9.890;2023-08-08T12:04:10;5.87;;;2.50;;
20721;SDS011;10522;52.198;9.890;2023-08-08T12:06:36;5.83;;;2.50;;
20721;SDS011;10522;52.198;9.890;2023-08-08T12:09:07;7.00;;;2.27;;
20721;SDS011;10522;52.198;9.890;2023-08-08T12:11:37;7.80;;;1.80;;
20721;SDS011;10522;52.198;9.890;2023-08-08T12:14:03;4.60;;;2.20;;
20721;SDS011;10522;52.198;9.890;2023-08-08T12:16:29;3.33;;;1.73;;
20721;SDS011;10522;52.198;9.890;2023-08-08T12:18:55;5.60;;;2.00;;
20721;SDS011;10522;52.198;9.890;2023-08-08T12:21:21;2.57;;;1.60;;
20721;SDS011;10522;52.198;9.890;2023-08-08T12:23:47;4.00;;;1.47;;
20721;SDS011;10522;52.198;9.890;2023-08-08T12:26:13;6.00;;;1.70;;
20721;SDS011;10522;52.198;9.890;2023-08-08T12:28:38;2.27;;;1.73;;
20721;SDS011;10522;52.198;9.890;2023-08-08T12:31:04;4.17;;;1.53;;
20721;SDS011;10522;52.198;9.890;2023-08-08T12:33:30;2.90;;;1.60;;
20721;SDS011;10522;52.198;9.890;2023-08-08T12:35:55;3.73;;;1.27;;
20721;SDS011;10522;52.198;9.890;2023-08-08T12:38:21;4.70;;;1.40;;
20721;SDS011;10522;52.198;9.890;2023-08-08T12:40:47;8.47;;;2.13;;
20721;SDS011;10522;52.198;9.890;2023-08-08T12:43:13;4.73;;;1.47;;
20721;SDS011;10522;52.198;9.890;2023-08-08T12:45:42;3.03;;;1.50;;
20721;SDS011;10522;52.198;9.890;2023-08-08T12:48:09;5.10;;;1.60;;
20721;SDS011;10522;52.198;9.890;2023-08-08T12:50:36;4.90;;;1.53;;
20721;SDS011;10522;52.198;9.890;2023-08-08T12:53:02;5.33;;;1.40;;
20721;SDS011;10522;52.198;9.890;2023-08-08T12:55:29;3.23;;;1.27;;
20721;SDS011;10522;52.198;9.890;2023-08-08T12:57:55;5.07;;;1.40;;
20721;SDS011;10522;52.198;9.890;2023-08-08T13:00:22;2.80;;;1.23;;
20721;SDS011;10522;52.198;9.890;2023-08-08T13:02:48;5.07;;;1.60;;
20721;SDS011;10522;52.198;9.890;2023-08-08T13:05:14;5.73;;;1.90;;
20721;SDS011;10522;52.198;9.890;2023-08-08T13:07:39;2.70;;;1.27;;
20721;SDS011;10522;52.198;9.890;2023-08-08T13:10:05;6.27;;;2.03;;
20721;SDS011;10522;52.198;9.890;2023-08-08T13:12:31;4.60;;;1.60;;
20721;SDS011;10522;52.198;9.890;2023-08-08T13:14:57;2.80;;;1.53;;
20721;SDS011;10522;52.198;9.890;2023-08-08T13:17:23;5.40;;;1.90;;
20721;SDS011;10522;52.198;9.890;2023-08-08T13:19:51;2.77;;;1.63;;
20721;SDS011;10522;52.198;9.890;2023-08-08T13:22:17;7.17;;;1.90;;
20721;SDS011;10522;52.198;9.890;2023-08-08T13:24:42;1.30;;;1.20;;
20721;SDS011;10522;52.198;9.890;2023-08-08T13:27:08;3.10;;;1.50;;
20721;SDS011;10522;52.198;9.890;2023-08-08T13:29:34;5.13;;;2.50;;
20721;SDS011;10522;52.198;9.890;2023-08-08T13:31:59;2.90;;;1.30;;
20721;SDS011;10522;52.198;9.890;2023-08-08T13:34:27;4.13;;;1.57;;
20721;SDS011;10522;52.198;9.890;2023-08-08T13:36:52;3.07;;;1.43;;
20721;SDS011;10522;52.198;9.890;2023-08-08T13:39:18;3.37;;;1.27;;
20721;SDS011;10522;52.198;9.890;2023-08-08T13:41:43;2.17;;;1.30;;
20721;SDS011;10522;52.198;9.890;2023-08-08T13:44:09;3.93;;;1.57;;
20721;SDS011;10522;52.198;9.890;2023-08-08T13:46:35;2.63;;;1.57;;
20721;SDS011;10522;52.198;9.890;2023-08-08T13:49:00;1.70;;;0.93;;
20721;SDS011;10522;52.198;9.890;2023-08-08T13:51:26;2.40;;;1.20;;
20721;SDS011;10522;52.198;9.890;2023-08-08T13:53:52;2.80;;;1.10;;
20721;SDS011;10522;52.198;9.890;2023-08-08T13:56:18;4.10;;;1.20;;
20721;SDS011;10522;52.198;9.890;2023-08-08T13:58:43;2.57;;;0.93;;
20721;SDS011;10522;52.198;9.890;2023-08-08T14:01:09;2.60;;;1.10;;
20721;SDS011;10522;52.198;9.890;2023-08-08T14:03:35;2.43;;;1.20;;
20721;SDS011;10522;52.198;9.890;2023-08-08T14:06:01;2.43;;;1.00;;
20721;SDS011;10522;52.198;9.890;2023-08-08T14:08:26;5.60;;;1.20;;
20721;SDS011;10522;52.198;9.890;2023-08-08T14:10:52;2.10;;;1.03;;
20721;SDS011;10522;52.198;9.890;2023-08-08T14:13:18;5.03;;;0.87;;
20721;SDS011;10522;52.198;9.890;2023-08-08T14:15:44;2.73;;;1.30;;
20721;SDS011;10522;52.198;9.890;2023-08-08T14:18:10;2.70;;;1.20;;
20721;SDS011;10522;52.198;9.890;2023-08-08T14:20:36;3.27;;;1.60;;
20721;SDS011;10522;52.198;9.890;2023-08-08T14:23:02;3.10;;;1.23;;
20721;SDS011;10522;52.198;9.890;2023-08-08T14:25:28;3.60;;;1.30;;
20721;SDS011;10522;52.198;9.890;2023-08-08T14:27:54;2.53;;;1.00;;
20721;SDS011;10522;52.198;9.890;2023-08-08T14:30:21;3.30;;;1.43;;
20721;SDS011;10522;52.198;9.890;2023-08-08T14:32:48;3.73;;;1.10;;
20721;SDS011;10522;52.198;9.890;2023-08-08T14:35:13;2.27;;;0.73;;
20721;SDS011;10522;52.198;9.890;2023-08-08T14:37:39;6.87;;;1.30;;
20721;SDS011;10522;52.198;9.890;2023-08-08T14:40:05;5.27;;;1.30;;
20721;SDS011;10522;52.198;9.890;2023-08-08T14:42:32;4.37;;;1.30;;
20721;SDS011;10522;52.198;9.890;2023-08-08T14:44:57;5.67;;;1.20;;
20721;SDS011;10522;52.198;9.890;2023-08-08T14:47:23;6.83;;;1.13;;
20721;SDS011;10522;52.198;9.890;2023-08-08T14:49:49;1.00;;;0.87;;